sensor_id;sensor_type;location;lat;lon;timestamp;temperature;humidity
1379;DHT22;683;48.738;9.226;2023-07-29T00:01:59;15.80;99.90
1379;DHT22;683;48.738;9.226;2023-07-29T00:04:27;15.80;99.90
1379;DHT22;683;48.738;9.226;2023-07-29T00:06:54;15.90;99.90
1379;DHT22;683;48.738;9.226;2023-07-29T00:09:21;15.90;99.90
1379;DHT22;683;48.738;9.226;2023-07-29T00:11:51;15.90;99.90
1379;DHT22;683;48.738;9.226;2023-07-29T00:14:22;16.00;99.90
1379;DHT22;683;48.738;9.226;2023-07-29T00:16:49;16.00;99.90
1379;DHT22;683;48.738;9.226;2023-07-29T00:19:16;16.00;99.90
1379;DHT22;683;48.738;9.226;2023-07-29T00:21:44;16.00;99.90
1379;DHT22;683;48.738;9.226;2023-07-29T00:24:12;16.10;99.90
1379;DHT22;683;48.738;9.226;2023-07-29T00:26:39;16.10;99.90
1379;DHT22;683;48.738;9.226;2023-07-29T00:29:06;16.00;99.90
1379;DHT22;683;48.738;9.226;2023-07-29T00:31:33;16.00;99.90
1379;DHT22;683;48.738;9.226;2023-07-29T00:34:00;16.10;99.90
1379;DHT22;683;48.738;9.226;2023-07-29T00:36:27;16.00;99.90
1379;DHT22;683;48.738;9.226;2023-07-29T00:38:56;16.00;99.90
1379;DHT22;683;48.738;9.226;2023-07-29T00:41:23;16.00;99.90
1379;DHT22;683;48.738;9.226;2023-07-29T00:43:53;16.00;99.90
1379;DHT22;683;48.738;9.226;2023-07-29T00:46:20;16.00;99.90
1379;DHT22;683;48.738;9.226;2023-07-29T00:48:48;16.00;99.90
1379;DHT22;683;48.738;9.226;2023-07-29T00:51:15;16.00;99.90
1379;DHT22;683;48.738;9.226;2023-07-29T00:53:43;16.00;99.90
1379;DHT22;683;48.738;9.226;2023-07-29T00:56:12;16.10;99.90
1379;DHT22;683;48.738;9.226;2023-07-29T00:58:39;16.00;99.90
1379;DHT22;683;48.738;9.226;2023-07-29T01:01:06;16.00;99.90
1379;DHT22;683;48.738;9.226;2023-07-29T01:03:35;16.00;99.90
1379;DHT22;683;48.738;9.226;2023-07-29T01:06:09;16.00;99.90
1379;DHT22;683;48.738;9.226;2023-07-29T01:08:46;16.00;99.90
1379;DHT22;683;48.738;9.226;2023-07-29T01:11:29;16.00;99.90
1379;DHT22;683;48.738;9.226;2023-07-29T01:14:05;16.00;99.90
1379;DHT22;683;48.738;9.226;2023-07-29T01:16:42;16.00;99.90
1379;DHT22;683;48.738;9.226;2023-07-29T01:19:14;16.00;99.90
1379;DHT22;683;48.738;9.226;2023-07-29T01:21:50;16.00;99.90
1379;DHT22;683;48.738;9.226;2023-07-29T01:24:19;16.00;99.90
1379;DHT22;683;48.738;9.226;2023-07-29T01:26:46;16.00;99.90
1379;DHT22;683;48.738;9.226;2023-07-29T01:29:14;15.90;99.90
1379;DHT22;683;48.738;9.226;2023-07-29T01:31:45;15.90;99.90
1379;DHT22;683;48.738;9.226;2023-07-29T01:34:22;15.90;99.90
1379;DHT22;683;48.738;9.226;2023-07-29T01:36:54;15.90;99.90
1379;DHT22;683;48.738;9.226;2023-07-29T01:39:27;16.00;99.90
1379;DHT22;683;48.738;9.226;2023-07-29T01:41:55;16.00;99.90
1379;DHT22;683;48.738;9.226;2023-07-29T01:44:22;16.00;99.90
1379;DHT22;683;48.738;9.226;2023-07-29T01:46:49;16.00;99.90
1379;DHT22;683;48.738;9.226;2023-07-29T01:49:17;16.00;99.90
1379;DHT22;683;48.738;9.226;2023-07-29T01:51:44;16.00;99.90
1379;DHT22;683;48.738;9.226;2023-07-29T01:54:11;16.10;99.90
1379;DHT22;683;48.738;9.226;2023-07-29T01:56:39;16.10;99.90
1379;DHT22;683;48.738;9.226;2023-07-29T01:59:07;16.10;99.90
1379;DHT22;683;48.738;9.226;2023-07-29T02:01:34;16.10;99.90
1379;DHT22;683;48.738;9.226;2023-07-29T02:04:01;16.10;99.90
1379;DHT22;683;48.738;9.226;2023-07-29T02:06:28;16.10;99.90
1379;DHT22;683;48.738;9.226;2023-07-29T02:08:56;16.10;99.90
1379;DHT22;683;48.738;9.226;2023-07-29T02:11:23;16.00;99.90
1379;DHT22;683;48.738;9.226;2023-07-29T02:13:55;16.00;99.90
1379;DHT22;683;48.738;9.226;2023-07-29T02:16:22;16.00;99.90
1379;DHT22;683;48.738;9.226;2023-07-29T02:18:50;15.90;99.90
1379;DHT22;683;48.738;9.226;2023-07-29T02:21:17;15.90;99.90
1379;DHT22;683;48.738;9.226;2023-07-29T02:23:45;15.90;99.90
1379;DHT22;683;48.738;9.226;2023-07-29T02:26:12;15.80;99.90
1379;DHT22;683;48.738;9.226;2023-07-29T02:28:39;15.80;99.90
1379;DHT22;683;48.738;9.226;2023-07-29T02:31:14;15.80;99.90
1379;DHT22;683;48.738;9.226;2023-07-29T02:33:42;15.80;99.90
1379;DHT22;683;48.738;9.226;2023-07-29T02:36:09;15.80;99.90
1379;DHT22;683;48.738;9.226;2023-07-29T02:38:36;15.80;99.90
1379;DHT22;683;48.738;9.226;2023-07-29T02:41:03;15.90;99.90
1379;DHT22;683;48.738;9.226;2023-07-29T02:43:30;15.90;99.90
1379;DHT22;683;48.738;9.226;2023-07-29T02:45:58;15.90;99.90
1379;DHT22;683;48.738;9.226;2023-07-29T02:48:26;15.90;99.90
1379;DHT22;683;48.738;9.226;2023-07-29T02:50:54;15.80;99.90
1379;DHT22;683;48.738;9.226;2023-07-29T02:53:22;15.80;99.90
1379;DHT22;683;48.738;9.226;2023-07-29T02:55:49;15.80;99.90
1379;DHT22;683;48.738;9.226;2023-07-29T02:58:16;15.80;99.90
1379;DHT22;683;48.738;9.226;2023-07-29T03:00:43;15.80;99.90
1379;DHT22;683;48.738;9.226;2023-07-29T03:03:11;15.90;99.90
1379;DHT22;683;48.738;9.226;2023-07-29T03:05:39;15.90;99.90
1379;DHT22;683;48.738;9.226;2023-07-29T03:08:06;15.90;99.90
1379;DHT22;683;48.738;9.226;2023-07-29T03:10:35;15.90;99.90
1379;DHT22;683;48.738;9.226;2023-07-29T03:13:03;15.90;99.90
1379;DHT22;683;48.738;9.226;2023-07-29T03:15:30;15.90;99.90
1379;DHT22;683;48.738;9.226;2023-07-29T03:17:57;15.90;99.90
1379;DHT22;683;48.738;9.226;2023-07-29T03:20:24;15.90;99.90
1379;DHT22;683;48.738;9.226;2023-07-29T03:22:53;15.90;99.90
1379;DHT22;683;48.738;9.226;2023-07-29T03:25:20;15.80;99.90
1379;DHT22;683;48.738;9.226;2023-07-29T03:27:47;15.80;99.90
1379;DHT22;683;48.738;9.226;2023-07-29T03:30:15;15.80;99.90
1379;DHT22;683;48.738;9.226;2023-07-29T03:32:44;15.80;99.90
1379;DHT22;683;48.738;9.226;2023-07-29T03:35:12;15.80;99.90
1379;DHT22;683;48.738;9.226;2023-07-29T03:37:39;15.80;99.90
1379;DHT22;683;48.738;9.226;2023-07-29T03:40:08;15.80;99.90
1379;DHT22;683;48.738;9.226;2023-07-29T03:42:36;15.90;99.90
1379;DHT22;683;48.738;9.226;2023-07-29T03:45:04;15.90;99.90
1379;DHT22;683;48.738;9.226;2023-07-29T03:47:31;15.90;99.90
1379;DHT22;683;48.738;9.226;2023-07-29T03:49:59;16.00;99.90
1379;DHT22;683;48.738;9.226;2023-07-29T03:52:26;16.00;99.90
1379;DHT22;683;48.738;9.226;2023-07-29T03:54:53;16.00;99.90
1379;DHT22;683;48.738;9.226;2023-07-29T03:57:22;16.00;99.90
1379;DHT22;683;48.738;9.226;2023-07-29T03:59:49;16.10;99.90
1379;DHT22;683;48.738;9.226;2023-07-29T04:02:16;16.10;99.90
1379;DHT22;683;48.738;9.226;2023-07-29T04:04:43;16.10;99.90
1379;DHT22;683;48.738;9.226;2023-07-29T04:07:13;16.20;99.90
1379;DHT22;683;48.738;9.226;2023-07-29T04:09:40;16.20;99.90
1379;DHT22;683;48.738;9.226;2023-07-29T04:12:09;16.20;99.90
1379;DHT22;683;48.738;9.226;2023-07-29T04:14:37;16.20;99.90
1379;DHT22;683;48.738;9.226;2023-07-29T04:17:05;16.20;99.90
1379;DHT22;683;48.738;9.226;2023-07-29T04:19:32;16.10;99.90
1379;DHT22;683;48.738;9.226;2023-07-29T04:21:59;16.10;99.90
1379;DHT22;683;48.738;9.226;2023-07-29T04:24:27;16.10;99.90
1379;DHT22;683;48.738;9.226;2023-07-29T04:26:54;16.10;99.90
1379;DHT22;683;48.738;9.226;2023-07-29T04:29:21;16.10;99.90
1379;DHT22;683;48.738;9.226;2023-07-29T04:31:50;16.10;99.90
1379;DHT22;683;48.738;9.226;2023-07-29T04:34:18;16.10;99.90
1379;DHT22;683;48.738;9.226;2023-07-29T04:36:45;16.10;99.90
1379;DHT22;683;48.738;9.226;2023-07-29T04:39:13;16.10;99.90
1379;DHT22;683;48.738;9.226;2023-07-29T04:41:40;16.10;99.90
1379;DHT22;683;48.738;9.226;2023-07-29T04:44:07;16.10;99.90
1379;DHT22;683;48.738;9.226;2023-07-29T04:46:35;16.10;99.90
1379;DHT22;683;48.738;9.226;2023-07-29T04:49:04;16.10;99.90
1379;DHT22;683;48.738;9.226;2023-07-29T04:51:32;16.10;99.90
1379;DHT22;683;48.738;9.226;2023-07-29T04:53:59;16.10;99.90
1379;DHT22;683;48.738;9.226;2023-07-29T04:56:26;16.10;99.90
1379;DHT22;683;48.738;9.226;2023-07-29T04:58:53;16.10;99.90
1379;DHT22;683;48.738;9.226;2023-07-29T05:01:20;16.10;99.90
1379;DHT22;683;48.738;9.226;2023-07-29T05:03:48;16.10;99.90
1379;DHT22;683;48.738;9.226;2023-07-29T05:06:16;16.10;99.90
1379;DHT22;683;48.738;9.226;2023-07-29T05:08:44;16.10;99.90
1379;DHT22;683;48.738;9.226;2023-07-29T05:11:11;16.10;99.90
1379;DHT22;683;48.738;9.226;2023-07-29T05:13:38;16.10;99.90
1379;DHT22;683;48.738;9.226;2023-07-29T05:16:05;16.20;99.90
1379;DHT22;683;48.738;9.226;2023-07-29T05:18:33;16.20;99.90
1379;DHT22;683;48.738;9.226;2023-07-29T05:21:00;16.30;99.90
1379;DHT22;683;48.738;9.226;2023-07-29T05:23:28;16.30;99.90
1379;DHT22;683;48.738;9.226;2023-07-29T05:25:56;16.40;99.90
1379;DHT22;683;48.738;9.226;2023-07-29T05:28:23;16.50;99.90
1379;DHT22;683;48.738;9.226;2023-07-29T05:30:50;16.50;99.90
1379;DHT22;683;48.738;9.226;2023-07-29T05:33:18;16.50;99.90
1379;DHT22;683;48.738;9.226;2023-07-29T05:35:45;16.50;99.90
1379;DHT22;683;48.738;9.226;2023-07-29T05:38:13;16.60;99.90
1379;DHT22;683;48.738;9.226;2023-07-29T05:40:42;16.60;99.90
1379;DHT22;683;48.738;9.226;2023-07-29T05:43:09;16.70;99.90
1379;DHT22;683;48.738;9.226;2023-07-29T05:45:36;16.80;99.90
1379;DHT22;683;48.738;9.226;2023-07-29T05:48:04;16.80;99.90
1379;DHT22;683;48.738;9.226;2023-07-29T05:50:31;16.90;99.90
1379;DHT22;683;48.738;9.226;2023-07-29T05:52:58;17.00;99.90
1379;DHT22;683;48.738;9.226;2023-07-29T05:55:26;17.10;99.90
1379;DHT22;683;48.738;9.226;2023-07-29T05:57:54;17.10;99.90
1379;DHT22;683;48.738;9.226;2023-07-29T06:00:21;17.20;99.90
1379;DHT22;683;48.738;9.226;2023-07-29T06:02:49;17.30;99.90
1379;DHT22;683;48.738;9.226;2023-07-29T06:05:20;17.40;99.90
1379;DHT22;683;48.738;9.226;2023-07-29T06:07:47;17.40;99.90
1379;DHT22;683;48.738;9.226;2023-07-29T06:10:16;17.50;99.90
1379;DHT22;683;48.738;9.226;2023-07-29T06:12:44;17.60;99.90
1379;DHT22;683;48.738;9.226;2023-07-29T06:15:13;17.70;99.90
1379;DHT22;683;48.738;9.226;2023-07-29T06:17:41;17.80;99.90
1379;DHT22;683;48.738;9.226;2023-07-29T06:20:09;17.90;99.90
1379;DHT22;683;48.738;9.226;2023-07-29T06:22:37;18.00;99.90
1379;DHT22;683;48.738;9.226;2023-07-29T06:25:04;18.30;99.90
1379;DHT22;683;48.738;9.226;2023-07-29T06:27:32;18.50;99.90
1379;DHT22;683;48.738;9.226;2023-07-29T06:29:59;18.70;99.90
1379;DHT22;683;48.738;9.226;2023-07-29T06:32:28;18.80;99.90
1379;DHT22;683;48.738;9.226;2023-07-29T06:34:55;19.00;99.90
1379;DHT22;683;48.738;9.226;2023-07-29T06:37:22;19.00;99.90
1379;DHT22;683;48.738;9.226;2023-07-29T06:39:49;19.00;99.90
1379;DHT22;683;48.738;9.226;2023-07-29T06:42:16;19.00;99.90
1379;DHT22;683;48.738;9.226;2023-07-29T06:44:43;19.00;99.90
1379;DHT22;683;48.738;9.226;2023-07-29T06:47:12;18.90;99.90
1379;DHT22;683;48.738;9.226;2023-07-29T06:49:40;18.90;99.90
1379;DHT22;683;48.738;9.226;2023-07-29T06:52:07;18.90;99.90
1379;DHT22;683;48.738;9.226;2023-07-29T06:54:35;18.80;99.90
1379;DHT22;683;48.738;9.226;2023-07-29T06:57:02;18.80;99.90
1379;DHT22;683;48.738;9.226;2023-07-29T06:59:29;18.70;99.90
1379;DHT22;683;48.738;9.226;2023-07-29T07:01:56;18.60;99.90
1379;DHT22;683;48.738;9.226;2023-07-29T07:04:25;18.40;99.90
1379;DHT22;683;48.738;9.226;2023-07-29T07:06:54;18.20;99.90
1379;DHT22;683;48.738;9.226;2023-07-29T07:09:21;18.10;99.90
1379;DHT22;683;48.738;9.226;2023-07-29T07:11:48;17.90;99.90
1379;DHT22;683;48.738;9.226;2023-07-29T07:14:16;17.80;99.90
1379;DHT22;683;48.738;9.226;2023-07-29T07:16:43;17.60;99.90
1379;DHT22;683;48.738;9.226;2023-07-29T07:19:11;17.50;99.90
1379;DHT22;683;48.738;9.226;2023-07-29T07:21:38;17.50;99.90
1379;DHT22;683;48.738;9.226;2023-07-29T07:24:07;17.40;99.90
1379;DHT22;683;48.738;9.226;2023-07-29T07:26:34;17.40;99.90
1379;DHT22;683;48.738;9.226;2023-07-29T07:29:01;17.40;99.90
1379;DHT22;683;48.738;9.226;2023-07-29T07:31:32;17.40;99.90
1379;DHT22;683;48.738;9.226;2023-07-29T07:33:59;17.40;99.90
1379;DHT22;683;48.738;9.226;2023-07-29T07:36:27;17.40;99.90
1379;DHT22;683;48.738;9.226;2023-07-29T07:38:55;17.50;99.90
1379;DHT22;683;48.738;9.226;2023-07-29T07:41:26;17.70;99.90
1379;DHT22;683;48.738;9.226;2023-07-29T07:43:53;17.80;99.90
1379;DHT22;683;48.738;9.226;2023-07-29T07:46:20;17.80;99.90
1379;DHT22;683;48.738;9.226;2023-07-29T07:48:47;17.90;99.90
1379;DHT22;683;48.738;9.226;2023-07-29T07:51:14;17.90;99.90
1379;DHT22;683;48.738;9.226;2023-07-29T07:53:41;17.90;99.90
1379;DHT22;683;48.738;9.226;2023-07-29T07:56:09;17.90;99.90
1379;DHT22;683;48.738;9.226;2023-07-29T07:58:38;18.00;99.90
1379;DHT22;683;48.738;9.226;2023-07-29T08:01:06;18.10;99.90
1379;DHT22;683;48.738;9.226;2023-07-29T08:03:34;18.10;99.90
1379;DHT22;683;48.738;9.226;2023-07-29T08:06:01;18.20;99.90
1379;DHT22;683;48.738;9.226;2023-07-29T08:08:29;18.30;99.90
1379;DHT22;683;48.738;9.226;2023-07-29T08:10:57;18.30;99.90
1379;DHT22;683;48.738;9.226;2023-07-29T08:13:24;18.30;99.90
1379;DHT22;683;48.738;9.226;2023-07-29T08:15:53;18.50;99.90
1379;DHT22;683;48.738;9.226;2023-07-29T08:18:20;18.70;99.90
1379;DHT22;683;48.738;9.226;2023-07-29T08:20:54;19.00;99.90
1379;DHT22;683;48.738;9.226;2023-07-29T08:23:24;19.20;99.90
1379;DHT22;683;48.738;9.226;2023-07-29T08:25:53;19.40;99.90
1379;DHT22;683;48.738;9.226;2023-07-29T08:28:22;19.60;99.90
1379;DHT22;683;48.738;9.226;2023-07-29T08:30:51;19.70;99.90
1379;DHT22;683;48.738;9.226;2023-07-29T08:33:20;19.90;99.90
1379;DHT22;683;48.738;9.226;2023-07-29T08:35:47;20.10;99.90
1379;DHT22;683;48.738;9.226;2023-07-29T08:38:14;20.20;99.90
1379;DHT22;683;48.738;9.226;2023-07-29T08:40:45;20.40;99.90
1379;DHT22;683;48.738;9.226;2023-07-29T08:43:14;20.60;99.90
1379;DHT22;683;48.738;9.226;2023-07-29T08:45:44;20.60;99.90
1379;DHT22;683;48.738;9.226;2023-07-29T08:48:15;20.70;99.90
1379;DHT22;683;48.738;9.226;2023-07-29T08:50:49;20.80;99.90
1379;DHT22;683;48.738;9.226;2023-07-29T08:53:17;20.80;99.90
1379;DHT22;683;48.738;9.226;2023-07-29T08:55:44;20.90;99.90
1379;DHT22;683;48.738;9.226;2023-07-29T08:58:12;21.00;99.90
1379;DHT22;683;48.738;9.226;2023-07-29T09:00:39;21.10;99.90
1379;DHT22;683;48.738;9.226;2023-07-29T09:03:07;21.30;99.90
1379;DHT22;683;48.738;9.226;2023-07-29T09:05:34;21.50;99.90
1379;DHT22;683;48.738;9.226;2023-07-29T09:08:04;21.90;99.90
1379;DHT22;683;48.738;9.226;2023-07-29T09:10:38;22.10;99.90
1379;DHT22;683;48.738;9.226;2023-07-29T09:13:05;22.20;99.90
1379;DHT22;683;48.738;9.226;2023-07-29T09:15:33;22.20;99.90
1379;DHT22;683;48.738;9.226;2023-07-29T09:18:09;22.30;99.90
1379;DHT22;683;48.738;9.226;2023-07-29T09:20:36;22.50;99.90
1379;DHT22;683;48.738;9.226;2023-07-29T09:23:08;22.70;99.90
1379;DHT22;683;48.738;9.226;2023-07-29T09:25:37;22.90;99.90
1379;DHT22;683;48.738;9.226;2023-07-29T09:28:10;23.10;99.90
1379;DHT22;683;48.738;9.226;2023-07-29T09:30:38;23.40;99.90
1379;DHT22;683;48.738;9.226;2023-07-29T09:33:06;23.40;99.90
1379;DHT22;683;48.738;9.226;2023-07-29T09:35:36;23.60;99.90
1379;DHT22;683;48.738;9.226;2023-07-29T09:38:05;23.70;99.90
1379;DHT22;683;48.738;9.226;2023-07-29T09:40:36;23.80;99.90
1379;DHT22;683;48.738;9.226;2023-07-29T09:43:05;23.90;99.90
1379;DHT22;683;48.738;9.226;2023-07-29T09:45:34;24.10;99.90
1379;DHT22;683;48.738;9.226;2023-07-29T09:48:02;24.20;99.90
1379;DHT22;683;48.738;9.226;2023-07-29T09:50:31;24.40;99.90
1379;DHT22;683;48.738;9.226;2023-07-29T09:52:58;24.60;99.90
1379;DHT22;683;48.738;9.226;2023-07-29T09:55:33;24.90;99.90
1379;DHT22;683;48.738;9.226;2023-07-29T09:58:01;25.10;99.90
1379;DHT22;683;48.738;9.226;2023-07-29T10:00:34;25.10;99.90
1379;DHT22;683;48.738;9.226;2023-07-29T10:03:01;25.10;99.90
1379;DHT22;683;48.738;9.226;2023-07-29T10:05:30;25.20;99.90
1379;DHT22;683;48.738;9.226;2023-07-29T10:07:57;25.20;99.90
1379;DHT22;683;48.738;9.226;2023-07-29T10:10:26;25.20;99.90
1379;DHT22;683;48.738;9.226;2023-07-29T10:12:54;25.10;99.90
1379;DHT22;683;48.738;9.226;2023-07-29T10:15:24;25.40;99.90
1379;DHT22;683;48.738;9.226;2023-07-29T10:17:52;25.60;99.90
1379;DHT22;683;48.738;9.226;2023-07-29T10:20:19;25.70;99.90
1379;DHT22;683;48.738;9.226;2023-07-29T10:22:49;25.70;99.90
1379;DHT22;683;48.738;9.226;2023-07-29T10:25:19;25.70;99.40
1379;DHT22;683;48.738;9.226;2023-07-29T10:27:56;25.90;99.40
1379;DHT22;683;48.738;9.226;2023-07-29T10:30:25;26.30;98.80
1379;DHT22;683;48.738;9.226;2023-07-29T10:32:52;26.80;97.30
1379;DHT22;683;48.738;9.226;2023-07-29T10:35:19;27.20;96.20
1379;DHT22;683;48.738;9.226;2023-07-29T10:37:47;27.30;95.10
1379;DHT22;683;48.738;9.226;2023-07-29T10:40:17;27.30;93.80
1379;DHT22;683;48.738;9.226;2023-07-29T10:43:02;27.40;92.90
1379;DHT22;683;48.738;9.226;2023-07-29T10:45:37;27.50;87.40
1379;DHT22;683;48.738;9.226;2023-07-29T10:48:06;27.60;85.00
1379;DHT22;683;48.738;9.226;2023-07-29T10:50:34;27.50;80.50
1379;DHT22;683;48.738;9.226;2023-07-29T10:53:02;27.40;80.60
1379;DHT22;683;48.738;9.226;2023-07-29T10:55:31;27.40;79.70
1379;DHT22;683;48.738;9.226;2023-07-29T10:58:07;27.30;80.20
1379;DHT22;683;48.738;9.226;2023-07-29T11:00:35;27.20;80.90
1379;DHT22;683;48.738;9.226;2023-07-29T11:03:06;27.30;80.80
1379;DHT22;683;48.738;9.226;2023-07-29T11:05:47;27.60;80.70
1379;DHT22;683;48.738;9.226;2023-07-29T11:08:22;27.90;77.70
1379;DHT22;683;48.738;9.226;2023-07-29T11:11:04;28.20;77.80
1379;DHT22;683;48.738;9.226;2023-07-29T11:13:34;28.40;76.30
1379;DHT22;683;48.738;9.226;2023-07-29T11:16:02;28.60;76.00
1379;DHT22;683;48.738;9.226;2023-07-29T11:18:30;28.80;75.70
1379;DHT22;683;48.738;9.226;2023-07-29T11:21:02;28.70;76.30
1379;DHT22;683;48.738;9.226;2023-07-29T11:23:31;28.70;77.70
1379;DHT22;683;48.738;9.226;2023-07-29T11:25:58;28.60;75.00
1379;DHT22;683;48.738;9.226;2023-07-29T11:28:26;28.50;75.30
1379;DHT22;683;48.738;9.226;2023-07-29T11:30:56;28.50;71.80
1379;DHT22;683;48.738;9.226;2023-07-29T11:33:25;28.30;71.50
1379;DHT22;683;48.738;9.226;2023-07-29T11:35:54;28.00;74.10
1379;DHT22;683;48.738;9.226;2023-07-29T11:38:22;27.80;76.40
1379;DHT22;683;48.738;9.226;2023-07-29T11:40:57;27.70;77.40
1379;DHT22;683;48.738;9.226;2023-07-29T11:43:25;27.90;77.20
1379;DHT22;683;48.738;9.226;2023-07-29T11:45:52;28.10;75.00
1379;DHT22;683;48.738;9.226;2023-07-29T11:48:28;28.20;73.30
1379;DHT22;683;48.738;9.226;2023-07-29T11:50:55;28.20;70.60
1379;DHT22;683;48.738;9.226;2023-07-29T11:53:26;28.30;69.90
1379;DHT22;683;48.738;9.226;2023-07-29T11:55:54;28.30;68.90
1379;DHT22;683;48.738;9.226;2023-07-29T11:58:24;28.30;69.00
1379;DHT22;683;48.738;9.226;2023-07-29T12:00:51;28.50;67.00
1379;DHT22;683;48.738;9.226;2023-07-29T12:03:19;28.60;68.30
1379;DHT22;683;48.738;9.226;2023-07-29T12:05:48;28.80;67.50
1379;DHT22;683;48.738;9.226;2023-07-29T12:08:15;29.10;66.10
1379;DHT22;683;48.738;9.226;2023-07-29T12:10:43;29.40;65.60
1379;DHT22;683;48.738;9.226;2023-07-29T12:13:10;29.50;60.50
1379;DHT22;683;48.738;9.226;2023-07-29T12:15:38;29.20;58.40
1379;DHT22;683;48.738;9.226;2023-07-29T12:18:06;28.90;59.20
1379;DHT22;683;48.738;9.226;2023-07-29T12:20:34;29.00;60.50
1379;DHT22;683;48.738;9.226;2023-07-29T12:23:02;29.20;59.30
1379;DHT22;683;48.738;9.226;2023-07-29T12:25:31;29.40;59.60
1379;DHT22;683;48.738;9.226;2023-07-29T12:28:02;29.70;61.30
1379;DHT22;683;48.738;9.226;2023-07-29T12:30:33;29.90;60.40
1379;DHT22;683;48.738;9.226;2023-07-29T12:33:00;30.20;60.10
1379;DHT22;683;48.738;9.226;2023-07-29T12:35:37;31.20;59.00
1379;DHT22;683;48.738;9.226;2023-07-29T12:38:06;31.50;57.10
1379;DHT22;683;48.738;9.226;2023-07-29T12:40:38;31.00;55.30
1379;DHT22;683;48.738;9.226;2023-07-29T12:43:06;30.70;56.00
1379;DHT22;683;48.738;9.226;2023-07-29T12:45:36;30.90;54.50
1379;DHT22;683;48.738;9.226;2023-07-29T12:48:05;31.40;55.00
1379;DHT22;683;48.738;9.226;2023-07-29T12:50:32;32.60;54.00
1379;DHT22;683;48.738;9.226;2023-07-29T12:53:00;33.80;51.60
1379;DHT22;683;48.738;9.226;2023-07-29T12:55:28;34.40;49.60
1379;DHT22;683;48.738;9.226;2023-07-29T12:57:55;34.70;48.80
1379;DHT22;683;48.738;9.226;2023-07-29T13:00:24;34.80;47.80
1379;DHT22;683;48.738;9.226;2023-07-29T13:02:51;33.90;48.40
1379;DHT22;683;48.738;9.226;2023-07-29T13:05:18;33.70;49.10
1379;DHT22;683;48.738;9.226;2023-07-29T13:07:46;33.30;49.40
1379;DHT22;683;48.738;9.226;2023-07-29T13:10:13;33.00;50.30
1379;DHT22;683;48.738;9.226;2023-07-29T13:12:42;33.60;49.30
1379;DHT22;683;48.738;9.226;2023-07-29T13:15:09;34.30;48.70
1379;DHT22;683;48.738;9.226;2023-07-29T13:17:36;35.20;46.90
1379;DHT22;683;48.738;9.226;2023-07-29T13:20:06;35.20;46.70
1379;DHT22;683;48.738;9.226;2023-07-29T13:22:34;34.60;46.70
1379;DHT22;683;48.738;9.226;2023-07-29T13:25:01;33.50;47.80
1379;DHT22;683;48.738;9.226;2023-07-29T13:27:31;32.40;49.80
1379;DHT22;683;48.738;9.226;2023-07-29T13:29:59;32.10;49.40
1379;DHT22;683;48.738;9.226;2023-07-29T13:32:26;31.70;50.90
1379;DHT22;683;48.738;9.226;2023-07-29T13:34:53;31.10;51.80
1379;DHT22;683;48.738;9.226;2023-07-29T13:37:21;30.80;52.80
1379;DHT22;683;48.738;9.226;2023-07-29T13:39:50;30.60;52.50
1379;DHT22;683;48.738;9.226;2023-07-29T13:42:17;30.20;53.50
1379;DHT22;683;48.738;9.226;2023-07-29T13:44:44;29.60;54.00
1379;DHT22;683;48.738;9.226;2023-07-29T13:47:12;29.20;55.10
1379;DHT22;683;48.738;9.226;2023-07-29T13:49:39;29.10;56.00
1379;DHT22;683;48.738;9.226;2023-07-29T13:52:07;29.10;56.20
1379;DHT22;683;48.738;9.226;2023-07-29T13:54:34;29.30;56.40
1379;DHT22;683;48.738;9.226;2023-07-29T13:57:01;29.30;56.10
1379;DHT22;683;48.738;9.226;2023-07-29T13:59:29;29.30;56.00
1379;DHT22;683;48.738;9.226;2023-07-29T14:01:56;29.00;56.30
1379;DHT22;683;48.738;9.226;2023-07-29T14:04:24;28.90;56.70
1379;DHT22;683;48.738;9.226;2023-07-29T14:06:51;29.00;56.90
1379;DHT22;683;48.738;9.226;2023-07-29T14:09:18;29.40;56.80
1379;DHT22;683;48.738;9.226;2023-07-29T14:11:45;29.50;55.60
1379;DHT22;683;48.738;9.226;2023-07-29T14:14:13;29.50;55.90
1379;DHT22;683;48.738;9.226;2023-07-29T14:16:40;29.20;55.90
1379;DHT22;683;48.738;9.226;2023-07-29T14:19:07;29.00;56.10
1379;DHT22;683;48.738;9.226;2023-07-29T14:21:35;28.60;56.90
1379;DHT22;683;48.738;9.226;2023-07-29T14:24:02;28.20;57.70
1379;DHT22;683;48.738;9.226;2023-07-29T14:26:30;28.00;58.00
1379;DHT22;683;48.738;9.226;2023-07-29T14:28:57;27.90;58.70
1379;DHT22;683;48.738;9.226;2023-07-29T14:31:24;27.90;58.10
1379;DHT22;683;48.738;9.226;2023-07-29T14:33:51;27.70;58.30
1379;DHT22;683;48.738;9.226;2023-07-29T14:36:18;27.70;59.50
1379;DHT22;683;48.738;9.226;2023-07-29T14:38:46;27.90;58.30
1379;DHT22;683;48.738;9.226;2023-07-29T14:41:14;27.90;58.20
1379;DHT22;683;48.738;9.226;2023-07-29T14:43:41;27.70;59.20
1379;DHT22;683;48.738;9.226;2023-07-29T14:46:08;27.70;59.20
1379;DHT22;683;48.738;9.226;2023-07-29T14:48:35;27.90;58.80
1379;DHT22;683;48.738;9.226;2023-07-29T14:51:02;28.10;58.50
1379;DHT22;683;48.738;9.226;2023-07-29T14:53:29;28.10;58.30
1379;DHT22;683;48.738;9.226;2023-07-29T14:56:01;28.10;57.90
1379;DHT22;683;48.738;9.226;2023-07-29T14:58:30;27.90;58.40
1379;DHT22;683;48.738;9.226;2023-07-29T15:00:58;27.60;58.90
1379;DHT22;683;48.738;9.226;2023-07-29T15:03:25;27.60;59.50
1379;DHT22;683;48.738;9.226;2023-07-29T15:05:54;28.30;59.30
1379;DHT22;683;48.738;9.226;2023-07-29T15:08:21;29.10;56.90
1379;DHT22;683;48.738;9.226;2023-07-29T15:10:48;29.40;55.90
1379;DHT22;683;48.738;9.226;2023-07-29T15:13:17;29.40;55.30
1379;DHT22;683;48.738;9.226;2023-07-29T15:15:44;29.10;55.20
1379;DHT22;683;48.738;9.226;2023-07-29T15:18:11;28.80;55.90
1379;DHT22;683;48.738;9.226;2023-07-29T15:20:38;28.60;56.50
1379;DHT22;683;48.738;9.226;2023-07-29T15:23:05;28.40;56.50
1379;DHT22;683;48.738;9.226;2023-07-29T15:25:32;28.30;56.90
1379;DHT22;683;48.738;9.226;2023-07-29T15:28:00;28.30;56.90
1379;DHT22;683;48.738;9.226;2023-07-29T15:30:28;28.50;56.50
1379;DHT22;683;48.738;9.226;2023-07-29T15:32:56;28.80;56.10
1379;DHT22;683;48.738;9.226;2023-07-29T15:35:23;28.80;56.20
1379;DHT22;683;48.738;9.226;2023-07-29T15:37:50;28.90;56.00
1379;DHT22;683;48.738;9.226;2023-07-29T15:40:17;29.20;56.10
1379;DHT22;683;48.738;9.226;2023-07-29T15:42:47;29.80;54.90
1379;DHT22;683;48.738;9.226;2023-07-29T15:45:16;30.90;52.70
1379;DHT22;683;48.738;9.226;2023-07-29T15:47:46;31.40;51.60
1379;DHT22;683;48.738;9.226;2023-07-29T15:50:13;31.80;51.30
1379;DHT22;683;48.738;9.226;2023-07-29T15:52:40;32.80;50.40
1379;DHT22;683;48.738;9.226;2023-07-29T15:55:08;33.30;48.60
1379;DHT22;683;48.738;9.226;2023-07-29T15:57:36;33.50;48.40
1379;DHT22;683;48.738;9.226;2023-07-29T16:00:04;33.60;47.80
1379;DHT22;683;48.738;9.226;2023-07-29T16:02:37;33.80;47.10
1379;DHT22;683;48.738;9.226;2023-07-29T16:05:07;33.80;46.40
1379;DHT22;683;48.738;9.226;2023-07-29T16:07:34;33.70;47.10
1379;DHT22;683;48.738;9.226;2023-07-29T16:10:01;34.50;45.90
1379;DHT22;683;48.738;9.226;2023-07-29T16:12:28;35.30;44.10
1379;DHT22;683;48.738;9.226;2023-07-29T16:14:56;35.70;43.90
1379;DHT22;683;48.738;9.226;2023-07-29T16:17:23;37.00;42.20
1379;DHT22;683;48.738;9.226;2023-07-29T16:19:54;38.20;40.70
1379;DHT22;683;48.738;9.226;2023-07-29T16:22:23;39.50;38.20
1379;DHT22;683;48.738;9.226;2023-07-29T16:24:52;40.00;36.50